In Rescue
 
Open Full Screen Window  High Contrast Mode
April 03, 2020 1:02 AM EDT
Weather Information
Wind Direction
  ---
Wind Speed
  00 kt (0 mph)
Wind Gust
  00 kt (0 mph)
Altimeter
30.09 in
Visibility
10 SM
Temperature
04° C
39° F
Dewpoint
02° C
36° F
Humidity
87%
1hr Rain Fall
00.00 in.
24hr Rain Fall
00.00 in.
Sky Condition
Clear
VFR

METAR KFPK 030502Z AUTO 00000KT 10SM CLR 04/02 A3009 RMK AO2 T00440016

FAA Disclaimer: The data displayed is for advisory purposes only and is not to be used for flight planning or operations.